sensor_id;sensor_type;location;lat;lon;timestamp;P1;durP1;ratioP1;P2;durP2;ratioP2
10162;SDS011;5123;52.556;13.384;2023-04-25T00:02:13;4.53;;;3.77;;
10162;SDS011;5123;52.556;13.384;2023-04-25T00:04:46;5.67;;;3.77;;
10162;SDS011;5123;52.556;13.384;2023-04-25T00:07:21;5.30;;;3.47;;
10162;SDS011;5123;52.556;13.384;2023-04-25T00:09:53;3.27;;;2.97;;
10162;SDS011;5123;52.556;13.384;2023-04-25T00:12:26;4.80;;;3.40;;
10162;SDS011;5123;52.556;13.384;2023-04-25T00:15:00;4.07;;;3.20;;
10162;SDS011;5123;52.556;13.384;2023-04-25T00:17:34;5.00;;;3.10;;
10162;SDS011;5123;52.556;13.384;2023-04-25T00:20:07;5.60;;;3.20;;
10162;SDS011;5123;52.556;13.384;2023-04-25T00:22:41;4.23;;;3.03;;
10162;SDS011;5123;52.556;13.384;2023-04-25T00:25:14;4.07;;;3.23;;
10162;SDS011;5123;52.556;13.384;2023-04-25T00:27:46;4.37;;;2.70;;
10162;SDS011;5123;52.556;13.384;2023-04-25T00:30:19;3.37;;;3.07;;
10162;SDS011;5123;52.556;13.384;2023-04-25T00:32:54;4.40;;;2.70;;
10162;SDS011;5123;52.556;13.384;2023-04-25T00:35:26;5.40;;;2.80;;
10162;SDS011;5123;52.556;13.384;2023-04-25T00:37:59;6.13;;;3.37;;
10162;SDS011;5123;52.556;13.384;2023-04-25T00:40:32;10.50;;;3.73;;
10162;SDS011;5123;52.556;13.384;2023-04-25T00:43:08;4.87;;;3.00;;
10162;SDS011;5123;52.556;13.384;2023-04-25T00:45:40;7.80;;;3.40;;
10162;SDS011;5123;52.556;13.384;2023-04-25T00:48:17;4.43;;;3.30;;
10162;SDS011;5123;52.556;13.384;2023-04-25T00:50:51;6.10;;;3.53;;
10162;SDS011;5123;52.556;13.384;2023-04-25T00:53:25;5.33;;;3.07;;
10162;SDS011;5123;52.556;13.384;2023-04-25T00:55:58;6.00;;;3.57;;
10162;SDS011;5123;52.556;13.384;2023-04-25T00:58:31;5.53;;;3.47;;
10162;SDS011;5123;52.556;13.384;2023-04-25T01:01:04;4.70;;;3.07;;
10162;SDS011;5123;52.556;13.384;2023-04-25T01:03:39;4.77;;;3.30;;
10162;SDS011;5123;52.556;13.384;2023-04-25T01:06:13;4.43;;;3.07;;
10162;SDS011;5123;52.556;13.384;2023-04-25T01:08:48;5.40;;;3.27;;
10162;SDS011;5123;52.556;13.384;2023-04-25T01:11:21;6.70;;;3.57;;
10162;SDS011;5123;52.556;13.384;2023-04-25T01:13:54;6.57;;;3.23;;
10162;SDS011;5123;52.556;13.384;2023-04-25T01:16:27;6.23;;;3.37;;
10162;SDS011;5123;52.556;13.384;2023-04-25T01:19:01;5.70;;;3.73;;
10162;SDS011;5123;52.556;13.384;2023-04-25T01:21:41;9.43;;;3.83;;
10162;SDS011;5123;52.556;13.384;2023-04-25T01:24:14;4.63;;;3.30;;
10162;SDS011;5123;52.556;13.384;2023-04-25T01:26:47;3.73;;;3.10;;
10162;SDS011;5123;52.556;13.384;2023-04-25T01:29:22;7.93;;;3.80;;
10162;SDS011;5123;52.556;13.384;2023-04-25T01:31:55;5.70;;;3.50;;
10162;SDS011;5123;52.556;13.384;2023-04-25T01:34:30;5.50;;;3.23;;
10162;SDS011;5123;52.556;13.384;2023-04-25T01:37:07;5.53;;;3.57;;
10162;SDS011;5123;52.556;13.384;2023-04-25T01:39:40;6.97;;;3.60;;
10162;SDS011;5123;52.556;13.384;2023-04-25T01:42:13;6.70;;;3.63;;
10162;SDS011;5123;52.556;13.384;2023-04-25T01:44:46;4.23;;;3.17;;
10162;SDS011;5123;52.556;13.384;2023-04-25T01:47:18;6.80;;;3.93;;
10162;SDS011;5123;52.556;13.384;2023-04-25T01:49:52;7.73;;;3.73;;
10162;SDS011;5123;52.556;13.384;2023-04-25T01:52:26;5.13;;;4.07;;
10162;SDS011;5123;52.556;13.384;2023-04-25T01:54:59;9.07;;;3.67;;
10162;SDS011;5123;52.556;13.384;2023-04-25T01:57:32;5.23;;;3.73;;
10162;SDS011;5123;52.556;13.384;2023-04-25T02:00:05;5.03;;;3.80;;
10162;SDS011;5123;52.556;13.384;2023-04-25T02:02:42;7.13;;;3.67;;
10162;SDS011;5123;52.556;13.384;2023-04-25T02:05:15;8.47;;;3.80;;
10162;SDS011;5123;52.556;13.384;2023-04-25T02:07:51;8.23;;;4.10;;
10162;SDS011;5123;52.556;13.384;2023-04-25T02:10:24;6.73;;;3.90;;
10162;SDS011;5123;52.556;13.384;2023-04-25T02:12:56;9.37;;;3.73;;
10162;SDS011;5123;52.556;13.384;2023-04-25T02:15:31;5.00;;;3.33;;
10162;SDS011;5123;52.556;13.384;2023-04-25T02:18:05;6.33;;;3.60;;
10162;SDS011;5123;52.556;13.384;2023-04-25T02:20:38;7.10;;;4.27;;
10162;SDS011;5123;52.556;13.384;2023-04-25T02:23:12;7.07;;;3.93;;
10162;SDS011;5123;52.556;13.384;2023-04-25T02:25:46;6.80;;;3.50;;
10162;SDS011;5123;52.556;13.384;2023-04-25T02:28:23;9.33;;;4.33;;
10162;SDS011;5123;52.556;13.384;2023-04-25T02:30:55;7.53;;;4.43;;
10162;SDS011;5123;52.556;13.384;2023-04-25T02:33:28;6.73;;;4.20;;
10162;SDS011;5123;52.556;13.384;2023-04-25T02:36:01;6.27;;;4.40;;
10162;SDS011;5123;52.556;13.384;2023-04-25T02:38:36;7.77;;;4.23;;
10162;SDS011;5123;52.556;13.384;2023-04-25T02:41:09;7.47;;;4.20;;
10162;SDS011;5123;52.556;13.384;2023-04-25T02:43:42;6.37;;;4.67;;
10162;SDS011;5123;52.556;13.384;2023-04-25T02:46:20;7.03;;;4.50;;
10162;SDS011;5123;52.556;13.384;2023-04-25T02:49:09;6.13;;;4.60;;
10162;SDS011;5123;52.556;13.384;2023-04-25T02:51:42;5.70;;;4.47;;
10162;SDS011;5123;52.556;13.384;2023-04-25T02:54:16;6.27;;;3.90;;
10162;SDS011;5123;52.556;13.384;2023-04-25T02:56:49;6.43;;;4.00;;
10162;SDS011;5123;52.556;13.384;2023-04-25T02:59:25;8.00;;;3.90;;
10162;SDS011;5123;52.556;13.384;2023-04-25T03:01:58;6.73;;;5.07;;
10162;SDS011;5123;52.556;13.384;2023-04-25T03:04:32;6.43;;;4.67;;
10162;SDS011;5123;52.556;13.384;2023-04-25T03:07:05;7.80;;;4.30;;
10162;SDS011;5123;52.556;13.384;2023-04-25T03:09:40;8.17;;;5.13;;
10162;SDS011;5123;52.556;13.384;2023-04-25T03:12:12;7.00;;;4.57;;
10162;SDS011;5123;52.556;13.384;2023-04-25T03:14:48;8.93;;;5.00;;
10162;SDS011;5123;52.556;13.384;2023-04-25T03:17:21;6.07;;;4.43;;
10162;SDS011;5123;52.556;13.384;2023-04-25T03:19:54;8.83;;;5.00;;
10162;SDS011;5123;52.556;13.384;2023-04-25T03:22:27;7.40;;;4.87;;
10162;SDS011;5123;52.556;13.384;2023-04-25T03:25:01;5.93;;;4.50;;
10162;SDS011;5123;52.556;13.384;2023-04-25T03:27:35;6.90;;;4.70;;
10162;SDS011;5123;52.556;13.384;2023-04-25T03:30:08;7.40;;;5.10;;
10162;SDS011;5123;52.556;13.384;2023-04-25T03:32:41;7.63;;;4.77;;
10162;SDS011;5123;52.556;13.384;2023-04-25T03:35:14;6.10;;;4.13;;
10162;SDS011;5123;52.556;13.384;2023-04-25T03:37:47;5.83;;;4.43;;
10162;SDS011;5123;52.556;13.384;2023-04-25T03:40:22;7.17;;;5.00;;
10162;SDS011;5123;52.556;13.384;2023-04-25T03:42:57;7.37;;;4.37;;
10162;SDS011;5123;52.556;13.384;2023-04-25T03:45:30;5.97;;;4.83;;
10162;SDS011;5123;52.556;13.384;2023-04-25T03:48:03;7.33;;;4.53;;
10162;SDS011;5123;52.556;13.384;2023-04-25T03:50:36;10.17;;;4.63;;
10162;SDS011;5123;52.556;13.384;2023-04-25T03:53:09;7.40;;;4.40;;
10162;SDS011;5123;52.556;13.384;2023-04-25T03:55:43;9.77;;;4.70;;
10162;SDS011;5123;52.556;13.384;2023-04-25T03:58:16;7.13;;;4.80;;
10162;SDS011;5123;52.556;13.384;2023-04-25T04:00:49;10.73;;;4.63;;
10162;SDS011;5123;52.556;13.384;2023-04-25T04:03:22;8.20;;;4.97;;
10162;SDS011;5123;52.556;13.384;2023-04-25T04:05:55;6.13;;;4.10;;
10162;SDS011;5123;52.556;13.384;2023-04-25T04:08:28;8.90;;;4.97;;
10162;SDS011;5123;52.556;13.384;2023-04-25T04:11:03;7.33;;;3.90;;
10162;SDS011;5123;52.556;13.384;2023-04-25T04:13:36;8.50;;;4.47;;
10162;SDS011;5123;52.556;13.384;2023-04-25T04:16:09;10.07;;;4.30;;
10162;SDS011;5123;52.556;13.384;2023-04-25T04:18:42;7.07;;;4.90;;
10162;SDS011;5123;52.556;13.384;2023-04-25T04:21:15;10.77;;;4.90;;
10162;SDS011;5123;52.556;13.384;2023-04-25T04:23:48;6.23;;;4.87;;
10162;SDS011;5123;52.556;13.384;2023-04-25T04:26:24;8.17;;;4.30;;
10162;SDS011;5123;52.556;13.384;2023-04-25T04:28:57;7.63;;;4.53;;
10162;SDS011;5123;52.556;13.384;2023-04-25T04:31:32;8.73;;;4.50;;
10162;SDS011;5123;52.556;13.384;2023-04-25T04:34:05;7.60;;;4.50;;
10162;SDS011;5123;52.556;13.384;2023-04-25T04:36:38;6.13;;;4.60;;
10162;SDS011;5123;52.556;13.384;2023-04-25T04:39:11;9.23;;;4.87;;
10162;SDS011;5123;52.556;13.384;2023-04-25T04:41:45;6.67;;;4.07;;
10162;SDS011;5123;52.556;13.384;2023-04-25T04:44:18;8.23;;;4.53;;
10162;SDS011;5123;52.556;13.384;2023-04-25T04:46:51;8.93;;;4.67;;
10162;SDS011;5123;52.556;13.384;2023-04-25T04:49:24;6.47;;;4.60;;
10162;SDS011;5123;52.556;13.384;2023-04-25T04:51:57;4.80;;;4.03;;
10162;SDS011;5123;52.556;13.384;2023-04-25T04:54:33;7.17;;;4.20;;
10162;SDS011;5123;52.556;13.384;2023-04-25T04:57:08;7.70;;;4.20;;
10162;SDS011;5123;52.556;13.384;2023-04-25T04:59:41;7.27;;;4.17;;
10162;SDS011;5123;52.556;13.384;2023-04-25T05:02:14;6.77;;;4.30;;
10162;SDS011;5123;52.556;13.384;2023-04-25T05:04:47;8.23;;;4.23;;
10162;SDS011;5123;52.556;13.384;2023-04-25T05:07:21;8.57;;;4.97;;
10162;SDS011;5123;52.556;13.384;2023-04-25T05:09:55;6.90;;;4.47;;
10162;SDS011;5123;52.556;13.384;2023-04-25T05:12:29;7.13;;;4.60;;
10162;SDS011;5123;52.556;13.384;2023-04-25T05:15:05;6.27;;;4.30;;
10162;SDS011;5123;52.556;13.384;2023-04-25T05:17:38;7.60;;;4.60;;
10162;SDS011;5123;52.556;13.384;2023-04-25T05:20:13;6.63;;;4.30;;
10162;SDS011;5123;52.556;13.384;2023-04-25T05:22:46;8.57;;;4.70;;
10162;SDS011;5123;52.556;13.384;2023-04-25T05:25:19;8.57;;;4.63;;
10162;SDS011;5123;52.556;13.384;2023-04-25T05:27:54;9.00;;;4.43;;
10162;SDS011;5123;52.556;13.384;2023-04-25T05:30:31;6.80;;;4.53;;
10162;SDS011;5123;52.556;13.384;2023-04-25T05:33:04;6.07;;;4.57;;
10162;SDS011;5123;52.556;13.384;2023-04-25T05:35:37;6.20;;;4.63;;
10162;SDS011;5123;52.556;13.384;2023-04-25T05:38:09;6.17;;;4.20;;
10162;SDS011;5123;52.556;13.384;2023-04-25T05:40:43;6.60;;;4.80;;
10162;SDS011;5123;52.556;13.384;2023-04-25T05:43:17;8.03;;;4.70;;
10162;SDS011;5123;52.556;13.384;2023-04-25T05:45:50;7.47;;;4.83;;
10162;SDS011;5123;52.556;13.384;2023-04-25T05:48:23;7.67;;;5.40;;
10162;SDS011;5123;52.556;13.384;2023-04-25T05:50:56;11.20;;;5.03;;
10162;SDS011;5123;52.556;13.384;2023-04-25T05:53:29;8.97;;;4.33;;
10162;SDS011;5123;52.556;13.384;2023-04-25T05:56:02;6.63;;;4.87;;
10162;SDS011;5123;52.556;13.384;2023-04-25T05:58:36;8.37;;;5.73;;
10162;SDS011;5123;52.556;13.384;2023-04-25T06:01:09;11.30;;;5.73;;
10162;SDS011;5123;52.556;13.384;2023-04-25T06:03:42;6.77;;;5.00;;
10162;SDS011;5123;52.556;13.384;2023-04-25T06:06:15;9.93;;;5.50;;
10162;SDS011;5123;52.556;13.384;2023-04-25T06:08:48;8.67;;;5.53;;
10162;SDS011;5123;52.556;13.384;2023-04-25T06:11:22;8.40;;;5.37;;
10162;SDS011;5123;52.556;13.384;2023-04-25T06:13:56;9.33;;;5.87;;
10162;SDS011;5123;52.556;13.384;2023-04-25T06:16:30;12.90;;;6.00;;
10162;SDS011;5123;52.556;13.384;2023-04-25T06:19:05;12.07;;;5.93;;
10162;SDS011;5123;52.556;13.384;2023-04-25T06:21:42;8.30;;;5.43;;
10162;SDS011;5123;52.556;13.384;2023-04-25T06:24:16;8.30;;;5.20;;
10162;SDS011;5123;52.556;13.384;2023-04-25T06:26:48;7.37;;;4.33;;
10162;SDS011;5123;52.556;13.384;2023-04-25T06:29:25;9.40;;;5.57;;
10162;SDS011;5123;52.556;13.384;2023-04-25T06:31:58;9.53;;;5.13;;
10162;SDS011;5123;52.556;13.384;2023-04-25T06:34:31;8.33;;;4.53;;
10162;SDS011;5123;52.556;13.384;2023-04-25T06:37:03;9.67;;;5.67;;
10162;SDS011;5123;52.556;13.384;2023-04-25T06:39:36;9.83;;;5.07;;
10162;SDS011;5123;52.556;13.384;2023-04-25T06:42:11;11.77;;;5.47;;
10162;SDS011;5123;52.556;13.384;2023-04-25T06:44:46;7.87;;;5.83;;
10162;SDS011;5123;52.556;13.384;2023-04-25T06:47:19;9.53;;;5.37;;
10162;SDS011;5123;52.556;13.384;2023-04-25T06:49:51;6.17;;;4.60;;
10162;SDS011;5123;52.556;13.384;2023-04-25T06:52:24;10.63;;;6.17;;
10162;SDS011;5123;52.556;13.384;2023-04-25T06:54:57;6.97;;;4.47;;
10162;SDS011;5123;52.556;13.384;2023-04-25T06:57:30;6.53;;;4.63;;
10162;SDS011;5123;52.556;13.384;2023-04-25T07:00:05;6.37;;;3.47;;
10162;SDS011;5123;52.556;13.384;2023-04-25T07:02:40;8.93;;;5.37;;
10162;SDS011;5123;52.556;13.384;2023-04-25T07:05:15;5.20;;;3.87;;
10162;SDS011;5123;52.556;13.384;2023-04-25T07:07:49;9.23;;;5.63;;
10162;SDS011;5123;52.556;13.384;2023-04-25T07:10:22;6.17;;;4.93;;
10162;SDS011;5123;52.556;13.384;2023-04-25T07:12:55;12.53;;;5.33;;
10162;SDS011;5123;52.556;13.384;2023-04-25T07:15:29;8.53;;;5.23;;
10162;SDS011;5123;52.556;13.384;2023-04-25T07:18:02;9.00;;;4.03;;
10162;SDS011;5123;52.556;13.384;2023-04-25T07:20:35;7.40;;;4.50;;
10162;SDS011;5123;52.556;13.384;2023-04-25T07:23:08;7.77;;;4.57;;
10162;SDS011;5123;52.556;13.384;2023-04-25T07:25:41;10.83;;;5.57;;
10162;SDS011;5123;52.556;13.384;2023-04-25T07:28:14;11.50;;;4.83;;
10162;SDS011;5123;52.556;13.384;2023-04-25T07:30:51;8.40;;;4.93;;
10162;SDS011;5123;52.556;13.384;2023-04-25T07:33:24;8.43;;;4.93;;
10162;SDS011;5123;52.556;13.384;2023-04-25T07:35:57;6.70;;;3.90;;
10162;SDS011;5123;52.556;13.384;2023-04-25T07:38:30;12.03;;;4.30;;
10162;SDS011;5123;52.556;13.384;2023-04-25T07:41:03;12.67;;;4.77;;
10162;SDS011;5123;52.556;13.384;2023-04-25T07:43:36;13.60;;;4.60;;
10162;SDS011;5123;52.556;13.384;2023-04-25T07:46:10;8.90;;;4.43;;
10162;SDS011;5123;52.556;13.384;2023-04-25T07:48:43;11.40;;;4.20;;
10162;SDS011;5123;52.556;13.384;2023-04-25T07:51:16;17.73;;;5.77;;
10162;SDS011;5123;52.556;13.384;2023-04-25T07:53:54;17.20;;;5.50;;
10162;SDS011;5123;52.556;13.384;2023-04-25T07:56:27;11.63;;;4.33;;
10162;SDS011;5123;52.556;13.384;2023-04-25T07:59:15;14.67;;;4.80;;
10162;SDS011;5123;52.556;13.384;2023-04-25T08:01:50;18.07;;;5.40;;
10162;SDS011;5123;52.556;13.384;2023-04-25T08:04:23;12.27;;;4.90;;
10162;SDS011;5123;52.556;13.384;2023-04-25T08:06:56;12.70;;;4.40;;
10162;SDS011;5123;52.556;13.384;2023-04-25T08:09:29;11.93;;;4.87;;
10162;SDS011;5123;52.556;13.384;2023-04-25T08:12:06;10.83;;;4.60;;
10162;SDS011;5123;52.556;13.384;2023-04-25T08:14:38;10.97;;;4.07;;
10162;SDS011;5123;52.556;13.384;2023-04-25T08:17:13;15.33;;;4.37;;
10162;SDS011;5123;52.556;13.384;2023-04-25T08:19:46;14.57;;;4.47;;
10162;SDS011;5123;52.556;13.384;2023-04-25T08:22:19;21.47;;;4.97;;
10162;SDS011;5123;52.556;13.384;2023-04-25T08:24:52;9.43;;;5.10;;
10162;SDS011;5123;52.556;13.384;2023-04-25T08:27:25;9.27;;;3.70;;
10162;SDS011;5123;52.556;13.384;2023-04-25T08:29:58;13.53;;;2.87;;
10162;SDS011;5123;52.556;13.384;2023-04-25T08:32:32;12.83;;;4.80;;
10162;SDS011;5123;52.556;13.384;2023-04-25T08:35:06;15.03;;;4.47;;
10162;SDS011;5123;52.556;13.384;2023-04-25T08:37:39;14.13;;;4.30;;
10162;SDS011;5123;52.556;13.384;2023-04-25T08:40:13;8.80;;;3.10;;
10162;SDS011;5123;52.556;13.384;2023-04-25T08:42:47;7.93;;;3.90;;
10162;SDS011;5123;52.556;13.384;2023-04-25T08:45:21;10.13;;;3.27;;
10162;SDS011;5123;52.556;13.384;2023-04-25T08:47:56;13.33;;;4.13;;
10162;SDS011;5123;52.556;13.384;2023-04-25T08:50:32;9.33;;;3.93;;
10162;SDS011;5123;52.556;13.384;2023-04-25T08:53:05;6.03;;;3.20;;
10162;SDS011;5123;52.556;13.384;2023-04-25T08:55:41;11.47;;;4.73;;
10162;SDS011;5123;52.556;13.384;2023-04-25T08:58:14;9.40;;;3.40;;
10162;SDS011;5123;52.556;13.384;2023-04-25T09:00:55;11.20;;;3.77;;
10162;SDS011;5123;52.556;13.384;2023-04-25T09:03:29;11.60;;;4.20;;
10162;SDS011;5123;52.556;13.384;2023-04-25T09:06:03;5.77;;;2.30;;
10162;SDS011;5123;52.556;13.384;2023-04-25T09:08:36;4.93;;;2.27;;
10162;SDS011;5123;52.556;13.384;2023-04-25T09:11:09;7.37;;;2.80;;
10162;SDS011;5123;52.556;13.384;2023-04-25T09:13:42;9.17;;;3.33;;
10162;SDS011;5123;52.556;13.384;2023-04-25T09:16:15;13.63;;;4.13;;
10162;SDS011;5123;52.556;13.384;2023-04-25T09:18:51;10.63;;;3.50;;
10162;SDS011;5123;52.556;13.384;2023-04-25T09:21:25;8.43;;;3.10;;
10162;SDS011;5123;52.556;13.384;2023-04-25T09:23:58;5.80;;;3.20;;
10162;SDS011;5123;52.556;13.384;2023-04-25T09:26:31;9.70;;;3.37;;
10162;SDS011;5123;52.556;13.384;2023-04-25T09:29:04;8.70;;;3.10;;
10162;SDS011;5123;52.556;13.384;2023-04-25T09:31:38;9.87;;;2.70;;
10162;SDS011;5123;52.556;13.384;2023-04-25T09:34:12;9.83;;;3.63;;
10162;SDS011;5123;52.556;13.384;2023-04-25T09:36:47;10.13;;;3.37;;
10162;SDS011;5123;52.556;13.384;2023-04-25T09:39:20;7.50;;;3.40;;
10162;SDS011;5123;52.556;13.384;2023-04-25T09:41:55;4.97;;;2.23;;
10162;SDS011;5123;52.556;13.384;2023-04-25T09:44:29;6.87;;;2.30;;
10162;SDS011;5123;52.556;13.384;2023-04-25T09:47:01;5.37;;;2.23;;
10162;SDS011;5123;52.556;13.384;2023-04-25T09:49:38;2.10;;;1.47;;
10162;SDS011;5123;52.556;13.384;2023-04-25T09:52:13;8.87;;;2.47;;
10162;SDS011;5123;52.556;13.384;2023-04-25T09:54:47;6.27;;;2.90;;
10162;SDS011;5123;52.556;13.384;2023-04-25T09:57:21;6.60;;;2.70;;
10162;SDS011;5123;52.556;13.384;2023-04-25T09:59:55;3.10;;;2.27;;
10162;SDS011;5123;52.556;13.384;2023-04-25T10:02:28;7.37;;;2.53;;
10162;SDS011;5123;52.556;13.384;2023-04-25T10:05:02;7.83;;;3.10;;
10162;SDS011;5123;52.556;13.384;2023-04-25T10:07:35;9.60;;;3.40;;
10162;SDS011;5123;52.556;13.384;2023-04-25T10:10:09;6.20;;;3.30;;
10162;SDS011;5123;52.556;13.384;2023-04-25T10:12:45;8.17;;;3.10;;
10162;SDS011;5123;52.556;13.384;2023-04-25T10:15:18;10.53;;;3.47;;
10162;SDS011;5123;52.556;13.384;2023-04-25T10:17:52;10.80;;;2.60;;
10162;SDS011;5123;52.556;13.384;2023-04-25T10:20:26;6.70;;;3.20;;
10162;SDS011;5123;52.556;13.384;2023-04-25T10:23:03;9.33;;;3.20;;
10162;SDS011;5123;52.556;13.384;2023-04-25T10:25:39;5.37;;;2.70;;
10162;SDS011;5123;52.556;13.384;2023-04-25T10:28:12;6.47;;;2.83;;
10162;SDS011;5123;52.556;13.384;2023-04-25T10:30:58;4.17;;;2.00;;
10162;SDS011;5123;52.556;13.384;2023-04-25T10:33:34;7.60;;;3.30;;
10162;SDS011;5123;52.556;13.384;2023-04-25T10:36:12;6.77;;;2.50;;
10162;SDS011;5123;52.556;13.384;2023-04-25T10:38:46;10.23;;;2.90;;
10162;SDS011;5123;52.556;13.384;2023-04-25T10:41:20;7.23;;;2.37;;
10162;SDS011;5123;52.556;13.384;2023-04-25T10:43:59;6.00;;;3.07;;
10162;SDS011;5123;52.556;13.384;2023-04-25T10:46:32;10.40;;;3.30;;
10162;SDS011;5123;52.556;13.384;2023-04-25T10:49:07;8.97;;;2.90;;
10162;SDS011;5123;52.556;13.384;2023-04-25T10:51:42;9.03;;;3.03;;
10162;SDS011;5123;52.556;13.384;2023-04-25T10:54:21;7.63;;;2.40;;
10162;SDS011;5123;52.556;13.384;2023-04-25T10:56:58;5.47;;;2.80;;
10162;SDS011;5123;52.556;13.384;2023-04-25T10:59:31;4.23;;;2.03;;
10162;SDS011;5123;52.556;13.384;2023-04-25T11:02:11;4.93;;;2.67;;
10162;SDS011;5123;52.556;13.384;2023-04-25T11:04:44;4.67;;;2.47;;
10162;SDS011;5123;52.556;13.384;2023-04-25T11:07:20;8.00;;;3.07;;
10162;SDS011;5123;52.556;13.384;2023-04-25T11:09:55;8.67;;;3.07;;
10162;SDS011;5123;52.556;13.384;2023-04-25T11:12:29;4.57;;;2.10;;
10162;SDS011;5123;52.556;13.384;2023-04-25T11:15:03;6.27;;;2.63;;
10162;SDS011;5123;52.556;13.384;2023-04-25T11:17:36;6.30;;;2.00;;
10162;SDS011;5123;52.556;13.384;2023-04-25T11:20:11;7.43;;;2.60;;
10162;SDS011;5123;52.556;13.384;2023-04-25T11:22:49;6.73;;;2.23;;
10162;SDS011;5123;52.556;13.384;2023-04-25T11:25:26;6.30;;;2.40;;
10162;SDS011;5123;52.556;13.384;2023-04-25T11:28:01;6.33;;;2.40;;
10162;SDS011;5123;52.556;13.384;2023-04-25T11:30:34;8.83;;;2.77;;
10162;SDS011;5123;52.556;13.384;2023-04-25T11:33:08;7.07;;;2.43;;
10162;SDS011;5123;52.556;13.384;2023-04-25T11:35:43;5.37;;;2.67;;
10162;SDS011;5123;52.556;13.384;2023-04-25T11:38:17;4.07;;;2.37;;
10162;SDS011;5123;52.556;13.384;2023-04-25T11:40:52;6.00;;;2.50;;
10162;SDS011;5123;52.556;13.384;2023-04-25T11:43:26;6.63;;;2.77;;
10162;SDS011;5123;52.556;13.384;2023-04-25T11:45:59;5.53;;;2.60;;
10162;SDS011;5123;52.556;13.384;2023-04-25T11:48:36;3.87;;;1.70;;
10162;SDS011;5123;52.556;13.384;2023-04-25T11:51:09;13.70;;;2.67;;
10162;SDS011;5123;52.556;13.384;2023-04-25T11:53:43;5.40;;;2.47;;
10162;SDS011;5123;52.556;13.384;2023-04-25T11:56:17;3.07;;;1.87;;
10162;SDS011;5123;52.556;13.384;2023-04-25T11:58:59;5.50;;;2.73;;
10162;SDS011;5123;52.556;13.384;2023-04-25T12:01:33;5.90;;;2.50;;
10162;SDS011;5123;52.556;13.384;2023-04-25T12:04:10;7.73;;;2.30;;
10162;SDS011;5123;52.556;13.384;2023-04-25T12:06:44;5.00;;;2.10;;
10162;SDS011;5123;52.556;13.384;2023-04-25T12:09:20;7.10;;;2.57;;
10162;SDS011;5123;52.556;13.384;2023-04-25T12:11:54;4.63;;;2.30;;
10162;SDS011;5123;52.556;13.384;2023-04-25T12:14:28;7.27;;;2.37;;
10162;SDS011;5123;52.556;13.384;2023-04-25T12:17:02;10.07;;;2.60;;
10162;SDS011;5123;52.556;13.384;2023-04-25T12:19:36;5.83;;;2.00;;
10162;SDS011;5123;52.556;13.384;2023-04-25T12:22:18;5.83;;;2.67;;
10162;SDS011;5123;52.556;13.384;2023-04-25T12:24:53;7.00;;;2.37;;
10162;SDS011;5123;52.556;13.384;2023-04-25T12:27:28;7.33;;;2.50;;
10162;SDS011;5123;52.556;13.384;2023-04-25T12:30:01;8.00;;;2.73;;
10162;SDS011;5123;52.556;13.384;2023-04-25T12:32:35;5.83;;;2.10;;
10162;SDS011;5123;52.556;13.384;2023-04-25T12:35:09;5.77;;;2.30;;
10162;SDS011;5123;52.556;13.384;2023-04-25T12:37:42;2.67;;;1.97;;
10162;SDS011;5123;52.556;13.384;2023-04-25T12:40:16;3.93;;;2.10;;
10162;SDS011;5123;52.556;13.384;2023-04-25T12:42:49;6.87;;;2.07;;
10162;SDS011;5123;52.556;13.384;2023-04-25T12:45:25;7.50;;;2.50;;
10162;SDS011;5123;52.556;13.384;2023-04-25T12:47:58;8.17;;;3.13;;
10162;SDS011;5123;52.556;13.384;2023-04-25T12:50:34;4.87;;;2.70;;
10162;SDS011;5123;52.556;13.384;2023-04-25T12:53:07;3.63;;;2.07;;
10162;SDS011;5123;52.556;13.384;2023-04-25T12:55:41;5.10;;;2.20;;
10162;SDS011;5123;52.556;13.384;2023-04-25T12:58:14;3.77;;;2.03;;
10162;SDS011;5123;52.556;13.384;2023-04-25T13:00:47;3.73;;;1.70;;
10162;SDS011;5123;52.556;13.384;2023-04-25T13:03:20;2.93;;;2.20;;
10162;SDS011;5123;52.556;13.384;2023-04-25T13:05:53;3.20;;;1.63;;
10162;SDS011;5123;52.556;13.384;2023-04-25T13:08:28;4.80;;;1.80;;
10162;SDS011;5123;52.556;13.384;2023-04-25T13:11:09;5.67;;;1.77;;
10162;SDS011;5123;52.556;13.384;2023-04-25T13:13:43;5.40;;;1.90;;
10162;SDS011;5123;52.556;13.384;2023-04-25T13:16:16;4.90;;;1.87;;
10162;SDS011;5123;52.556;13.384;2023-04-25T13:18:52;2.13;;;1.70;;
10162;SDS011;5123;52.556;13.384;2023-04-25T13:21:24;3.00;;;1.83;;
10162;SDS011;5123;52.556;13.384;2023-04-25T13:23:59;3.20;;;2.03;;
10162;SDS011;5123;52.556;13.384;2023-04-25T13:26:33;4.80;;;2.17;;
10162;SDS011;5123;52.556;13.384;2023-04-25T13:29:06;4.40;;;1.97;;
10162;SDS011;5123;52.556;13.384;2023-04-25T13:31:39;6.00;;;1.70;;
10162;SDS011;5123;52.556;13.384;2023-04-25T13:34:12;2.13;;;1.50;;
10162;SDS011;5123;52.556;13.384;2023-04-25T13:36:45;3.53;;;1.90;;
10162;SDS011;5123;52.556;13.384;2023-04-25T13:39:18;2.80;;;1.50;;
10162;SDS011;5123;52.556;13.384;2023-04-25T13:41:52;5.53;;;2.13;;
10162;SDS011;5123;52.556;13.384;2023-04-25T13:44:25;2.93;;;1.90;;
10162;SDS011;5123;52.556;13.384;2023-04-25T13:46:59;2.57;;;1.53;;
10162;SDS011;5123;52.556;13.384;2023-04-25T13:49:33;7.23;;;2.73;;
10162;SDS011;5123;52.556;13.384;2023-04-25T13:52:06;3.97;;;2.30;;
10162;SDS011;5123;52.556;13.384;2023-04-25T13:54:39;5.50;;;2.30;;
10162;SDS011;5123;52.556;13.384;2023-04-25T13:57:18;4.57;;;2.07;;
10162;SDS011;5123;52.556;13.384;2023-04-25T13:59:52;4.67;;;2.37;;
10162;SDS011;5123;52.556;13.384;2023-04-25T14:02:25;5.47;;;2.27;;
10162;SDS011;5123;52.556;13.384;2023-04-25T14:04:58;4.73;;;2.10;;
10162;SDS011;5123;52.556;13.384;2023-04-25T14:07:31;7.43;;;2.50;;
10162;SDS011;5123;52.556;13.384;2023-04-25T14:10:06;6.80;;;2.33;;
10162;SDS011;5123;52.556;13.384;2023-04-25T14:12:40;3.27;;;1.70;;
10162;SDS011;5123;52.556;13.384;2023-04-25T14:15:15;5.63;;;2.40;;
10162;SDS011;5123;52.556;13.384;2023-04-25T14:17:48;3.40;;;2.10;;
10162;SDS011;5123;52.556;13.384;2023-04-25T14:20:21;3.73;;;2.27;;
10162;SDS011;5123;52.556;13.384;2023-04-25T14:22:55;3.90;;;2.33;;
10162;SDS011;5123;52.556;13.384;2023-04-25T14:25:30;3.53;;;2.10;;
10162;SDS011;5123;52.556;13.384;2023-04-25T14:28:04;3.20;;;1.60;;
10162;SDS011;5123;52.556;13.384;2023-04-25T14:30:37;5.23;;;2.20;;
10162;SDS011;5123;52.556;13.384;2023-04-25T14:33:10;7.03;;;2.20;;
10162;SDS011;5123;52.556;13.384;2023-04-25T14:35:45;4.07;;;2.03;;
10162;SDS011;5123;52.556;13.384;2023-04-25T14:38:18;4.00;;;1.67;;
10162;SDS011;5123;52.556;13.384;2023-04-25T14:40:56;5.70;;;2.20;;
10162;SDS011;5123;52.556;13.384;2023-04-25T14:43:30;4.13;;;2.50;;
10162;SDS011;5123;52.556;13.384;2023-04-25T14:46:03;4.07;;;1.97;;
10162;SDS011;5123;52.556;13.384;2023-04-25T14:48:36;7.17;;;2.10;;
10162;SDS011;5123;52.556;13.384;2023-04-25T14:51:09;4.37;;;2.30;;
10162;SDS011;5123;52.556;13.384;2023-04-25T14:53:42;5.63;;;2.07;;
10162;SDS011;5123;52.556;13.384;2023-04-25T14:56:16;4.93;;;2.17;;
10162;SDS011;5123;52.556;13.384;2023-04-25T14:58:50;7.20;;;2.40;;
10162;SDS011;5123;52.556;13.384;2023-04-25T15:01:23;3.87;;;2.40;;
10162;SDS011;5123;52.556;13.384;2023-04-25T15:03:58;5.33;;;2.30;;
10162;SDS011;5123;52.556;13.384;2023-04-25T15:06:31;6.80;;;1.93;;
10162;SDS011;5123;52.556;13.384;2023-04-25T15:09:04;4.27;;;1.70;;
10162;SDS011;5123;52.556;13.384;2023-04-25T15:11:39;5.83;;;2.07;;
10162;SDS011;5123;52.556;13.384;2023-04-25T15:14:13;4.10;;;2.33;;
10162;SDS011;5123;52.556;13.384;2023-04-25T15:16:46;8.57;;;2.13;;
10162;SDS011;5123;52.556;13.384;2023-04-25T15:19:19;5.80;;;2.30;;
10162;SDS011;5123;52.556;13.384;2023-04-25T15:21:52;2.53;;;1.53;;
10162;SDS011;5123;52.556;13.384;2023-04-25T15:24:26;3.83;;;1.90;;
10162;SDS011;5123;52.556;13.384;2023-04-25T15:26:59;2.83;;;1.40;;